Time;durP1;ratioP1;P1;durP2;ratioP2;P2;SDS_P1;SDS_P2;PMS_P1;PMS_P2;Temp;Humidity;BMP_temperature;BMP_pressure;BME280_temperature;BME280_humidity;BME280_pressure;Samples;Min_cycle;Max_cycle;Signal;HPM_P1;HPM_P2
2024/03/25 00:00:49;;;;;;;9.50;1.93;;;5.40;99.90;;;6.19;100.00;97314.19;4997035;28;20475;-76
2024/03/25 00:03:16;;;;;;;3.57;1.67;;;5.50;99.90;;;6.18;100.00;97308.16;4996026;28;20504;-76
2024/03/25 00:05:43;;;;;;;3.03;1.80;;;5.40;99.90;;;6.10;100.00;97320.44;5000666;28;21102;-76
2024/03/25 00:08:10;;;;;;;5.00;1.97;;;5.30;99.90;;;5.95;100.00;97321.22;4995874;28;20802;-76
2024/03/25 00:10:37;;;;;;;4.10;1.90;;;5.20;99.90;;;5.97;100.00;97316.63;5001085;28;20879;-76
2024/03/25 00:13:06;;;;;;;11.27;2.20;;;5.20;99.90;;;5.95;100.00;97321.22;5013103;28;20467;-76
2024/03/25 00:15:34;;;;;;;5.27;1.97;;;5.10;99.90;;;6.00;100.00;97323.28;5002101;28;20864;-76
2024/03/25 00:18:01;;;;;;;3.23;1.93;;;5.20;99.90;;;6.03;100.00;97328.94;4997621;28;20465;-76
2024/03/25 00:20:29;;;;;;;12.83;1.97;;;5.20;99.90;;;6.03;100.00;97325.53;5004360;28;20838;-76
2024/03/25 00:22:57;;;;;;;2.17;1.87;;;5.30;99.90;;;6.07;100.00;97332.75;5017302;28;20501;-76
2024/03/25 00:25:23;;;;;;;7.07;2.23;;;5.30;99.90;;;6.06;100.00;97332.97;5021026;28;20465;-76
2024/03/25 00:27:51;;;;;;;3.10;2.07;;;5.30;99.90;;;6.10;100.00;97323.84;5003138;28;20481;-76
2024/03/25 00:30:19;;;;;;;6.17;1.60;;;5.30;99.90;;;6.15;100.00;97329.28;5020700;28;20454;-75
2024/03/25 00:32:47;;;;;;;4.40;1.80;;;5.30;99.90;;;6.18;100.00;97328.94;5002015;28;20473;-76
2024/03/25 00:35:13;;;;;;;8.57;1.73;;;5.30;99.90;;;6.13;100.00;97326.09;5004829;28;20480;-75
2024/03/25 00:37:41;;;;;;;6.10;1.70;;;5.30;99.90;;;6.15;100.00;97320.69;5004216;28;21058;-76
2024/03/25 00:40:08;;;;;;;7.20;1.80;;;5.40;99.90;;;6.21;100.00;97320.81;5001409;28;20464;-76
2024/03/25 00:42:39;;;;;;;1.57;1.23;;;5.40;99.90;;;6.29;100.00;97325.91;5005050;28;21186;-76
2024/03/25 00:45:07;;;;;;;2.60;1.50;;;5.50;99.90;;;6.39;100.00;97321.25;5005704;28;20471;-76
2024/03/25 00:47:36;;;;;;;11.03;1.80;;;5.60;99.90;;;6.43;100.00;97321.72;5001472;28;21149;-76
2024/03/25 00:50:02;;;;;;;8.33;1.67;;;5.60;99.90;;;6.39;100.00;97321.25;5017263;28;21370;-76
2024/03/25 00:52:30;;;;;;;6.33;1.83;;;5.60;99.90;;;6.43;100.00;97316.50;5013294;28;20478;-76
2024/03/25 00:54:56;;;;;;;4.00;1.70;;;5.70;99.90;;;6.44;100.00;97318.94;5002834;28;20492;-76
2024/03/25 00:57:24;;;;;;;6.80;2.00;;;5.70;99.90;;;6.51;100.00;97325.03;5003752;28;20484;-76
2024/03/25 00:59:50;;;;;;;3.20;1.67;;;5.80;99.90;;;6.50;100.00;97328.63;4996604;28;20478;-76
2024/03/25 01:02:18;;;;;;;4.43;1.80;;;5.70;99.90;;;6.49;100.00;97331.41;5003829;28;20912;-76
2024/03/25 01:04:45;;;;;;;3.23;1.73;;;5.70;99.90;;;6.51;100.00;97325.03;4999995;28;21032;-76
2024/03/25 01:07:13;;;;;;;2.90;1.67;;;5.70;99.90;;;6.53;100.00;97328.25;5000309;28;21016;-76
2024/03/25 01:09:39;;;;;;;2.80;1.53;;;5.70;99.90;;;6.52;100.00;97331.03;5014064;28;20461;-76
2024/03/25 01:12:07;;;;;;;6.07;1.47;;;5.80;99.90;;;6.54;100.00;97324.69;5001767;28;20510;-76
2024/03/25 01:14:34;;;;;;;1.93;1.50;;;5.80;99.90;;;6.56;100.00;97327.06;5016447;28;20569;-76
2024/03/25 01:17:01;;;;;;;5.13;1.57;;;5.80;99.90;;;6.55;100.00;97338.47;5003566;28;20499;-76
2024/03/25 01:19:28;;;;;;;3.67;1.80;;;5.80;99.90;;;6.56;100.00;97335.69;5003735;28;20468;-76
2024/03/25 01:21:57;;;;;;;3.77;1.30;;;5.80;99.90;;;6.53;100.00;97333.44;5003669;28;20853;-76
2024/03/25 01:24:23;;;;;;;3.00;1.60;;;5.70;99.90;;;6.54;100.00;97334.25;5004054;28;20501;-76
2024/03/25 01:26:51;;;;;;;1.53;1.40;;;5.70;99.90;;;6.51;100.00;97325.03;5005869;28;20868;-76
2024/03/25 01:29:18;;;;;;;2.43;1.53;;;5.80;99.90;;;6.51;100.00;97325.03;4997116;28;20874;-76
2024/03/25 01:31:45;;;;;;;3.43;1.53;;;5.80;99.90;;;6.49;100.00;97324.41;5015774;28;20826;-77
2024/03/25 01:34:12;;;;;;;3.67;1.30;;;5.80;99.90;;;6.47;100.00;97318.59;5001577;28;20940;-75
2024/03/25 01:36:40;;;;;;;2.60;1.30;;;5.80;99.90;;;6.46;100.00;97322.16;5000757;28;20481;-77
2024/03/25 01:39:08;;;;;;;2.97;1.93;;;5.80;99.90;;;6.46;100.00;97322.16;4998347;28;20473;-76
2024/03/25 01:41:35;;;;;;;2.80;1.40;;;5.70;99.90;;;6.37;100.00;97323.25;5010078;28;20472;-77
2024/03/25 01:44:02;;;;;;;5.60;2.07;;;5.70;99.90;;;6.37;100.00;97312.84;5001445;28;21402;-76
2024/03/25 01:46:30;;;;;;;2.30;1.50;;;5.70;99.90;;;6.37;100.00;97318.06;5014373;28;20472;-76
2024/03/25 01:48:58;;;;;;;3.90;1.60;;;5.60;99.90;;;6.37;100.00;97319.84;5001508;28;20476;-76
2024/03/25 01:51:26;;;;;;;7.33;2.00;;;5.60;99.90;;;6.28;100.00;97313.91;5002282;28;20482;-76
2024/03/25 01:53:55;;;;;;;2.93;1.70;;;5.50;99.90;;;6.28;100.00;97321.69;5001941;28;20478;-76
2024/03/25 01:56:25;;;;;;;3.90;1.33;;;5.60;99.90;;;6.28;100.00;97319.09;4999204;28;20458;-76
2024/03/25 01:58:52;;;;;;;5.13;2.30;;;5.50;99.90;;;6.20;100.00;97321.00;4997411;28;20473;-76
2024/03/25 02:01:21;;;;;;;2.13;1.30;;;5.40;99.90;;;6.06;100.00;97315.59;4998967;28;21006;-76
2024/03/25 02:03:48;;;;;;;8.10;1.67;;;5.30;99.90;;;6.05;100.00;97320.97;4997403;28;20566;-76
2024/03/25 02:06:18;;;;;;;3.63;1.50;;;5.20;99.90;;;5.87;100.00;97316.09;4994521;28;21011;-76
2024/03/25 02:08:45;;;;;;;2.13;1.50;;;5.10;99.90;;;5.79;100.00;97318.75;4998696;28;20474;-75
2024/03/25 02:11:13;;;;;;;4.27;2.10;;;5.00;99.90;;;5.77;100.00;97314.69;4994331;28;20466;-76
2024/03/25 02:13:41;;;;;;;3.27;1.30;;;4.90;99.90;;;5.78;100.00;97308.53;4997723;28;20494;-76
2024/03/25 02:16:09;;;;;;;2.30;1.43;;;4.90;99.90;;;5.72;100.00;97311.81;4995792;28;20461;-76
2024/03/25 02:18:35;;;;;;;2.97;1.60;;;4.90;99.90;;;5.57;100.00;97312.59;5009179;28;20978;-76
2024/03/25 02:21:03;;;;;;;3.23;1.40;;;4.80;99.90;;;5.58;100.00;97308.22;4998630;28;20887;-76
2024/03/25 02:23:30;;;;;;;4.30;1.77;;;4.80;99.90;;;5.55;100.00;97298.97;4995259;28;20508;-76
2024/03/25 02:25:58;;;;;;;4.07;1.60;;;4.80;99.90;;;5.63;100.00;97299.88;4998969;28;20473;-76
2024/03/25 02:28:25;;;;;;;5.00;1.63;;;4.80;99.90;;;5.53;100.00;97298.34;4993758;28;20468;-76
2024/03/25 02:30:53;;;;;;;2.73;1.33;;;4.70;99.90;;;5.50;100.00;97290.91;4999313;28;20478;-76
2024/03/25 02:33:19;;;;;;;3.60;1.70;;;4.70;99.90;;;5.44;100.00;97294.22;4997043;28;20472;-76
2024/03/25 02:35:47;;;;;;;4.97;1.50;;;4.60;99.90;;;5.50;100.00;97298.69;4998479;28;20971;-76
2024/03/25 02:38:15;;;;;;;3.00;1.60;;;4.60;99.90;;;5.40;100.00;97298.13;4997933;28;20479;-76
2024/03/25 02:40:43;;;;;;;3.87;1.83;;;4.50;99.90;;;5.32;100.00;97293.00;4994982;28;20470;-75
2024/03/25 02:43:10;;;;;;;1.80;1.70;;;4.40;99.90;;;5.21;100.00;97295.97;4999192;28;20805;-75
2024/03/25 02:45:38;;;;;;;3.77;1.60;;;4.30;99.90;;;5.18;100.00;97283.38;5011569;28;20987;-76
2024/03/25 02:48:05;;;;;;;3.73;1.30;;;4.40;99.90;;;5.03;100.00;97285.88;5000669;28;20467;-76
2024/03/25 02:50:32;;;;;;;10.60;2.00;;;4.30;99.90;;;5.11;100.00;97282.44;5000909;28;20974;-76
2024/03/25 02:52:59;;;;;;;4.50;1.93;;;4.30;99.90;;;5.02;100.00;97278.28;4999273;28;21051;-76
2024/03/25 02:55:26;;;;;;;2.73;1.30;;;4.30;99.90;;;5.00;100.00;97280.22;4997857;28;20467;-76
2024/03/25 02:57:52;;;;;;;2.97;1.67;;;4.30;99.90;;;5.04;100.00;97284.09;5000720;28;20470;-76
2024/03/25 03:00:21;;;;;;;2.17;1.43;;;4.30;99.90;;;4.98;100.00;97282.19;5013250;28;20475;-76
2024/03/25 03:02:48;;;;;;;3.47;1.83;;;4.10;99.90;;;4.83;100.00;97268.34;4999630;28;20498;-76
2024/03/25 03:05:17;;;;;;;3.80;1.57;;;4.20;99.90;;;4.78;100.00;97275.84;5013140;28;20467;-76
2024/03/25 03:07:43;;;;;;;4.73;1.90;;;4.10;99.90;;;4.81;100.00;97276.31;4998283;28;20476;-76
2024/03/25 03:10:11;;;;;;;6.20;1.70;;;4.00;99.90;;;4.77;100.00;97274.22;4997488;28;20691;-75
2024/03/25 03:12:37;;;;;;;2.40;1.80;;;4.00;99.90;;;4.75;100.00;97282.16;4999782;28;20472;-76
2024/03/25 03:15:06;;;;;;;5.50;1.40;;;4.00;99.90;;;4.65;100.00;97281.53;5002696;28;20482;-76
2024/03/25 03:17:34;;;;;;;3.30;1.77;;;3.90;99.90;;;4.69;100.00;97287.19;5001149;28;20771;-76
2024/03/25 03:20:01;;;;;;;13.50;2.33;;;4.00;99.90;;;4.69;100.00;97282.00;5012365;28;21046;-76
2024/03/25 03:22:28;;;;;;;3.83;1.50;;;3.90;99.90;;;4.67;100.00;97278.78;4995439;28;20506;-76
2024/03/25 03:24:55;;;;;;;3.80;1.70;;;4.00;99.90;;;4.67;100.00;97284.78;4999761;28;20579;-76
2024/03/25 03:27:22;;;;;;;4.90;1.53;;;4.00;99.90;;;4.64;100.00;97277.34;5006335;28;20464;-76
2024/03/25 03:29:49;;;;;;;2.60;1.73;;;3.90;99.90;;;4.66;100.00;97277.16;5001583;28;20471;-76
2024/03/25 03:32:15;;;;;;;4.50;1.60;;;4.00;99.90;;;4.72;100.00;97279.09;5000931;28;20451;-76
2024/03/25 03:34:44;;;;;;;4.40;1.70;;;3.90;99.90;;;4.68;100.00;97272.66;5013703;28;20459;-74
2024/03/25 03:37:10;;;;;;;1.83;1.30;;;3.90;99.90;;;4.69;100.00;97275.06;5002304;28;20478;-76
2024/03/25 03:39:38;;;;;;;9.70;2.00;;;3.90;99.90;;;4.65;100.00;97268.59;4998897;28;20475;-76
2024/03/25 03:42:05;;;;;;;2.80;1.33;;;3.80;99.90;;;4.65;100.00;97268.59;5016495;28;21166;-76
2024/03/25 03:44:32;;;;;;;8.77;1.93;;;3.80;99.90;;;4.59;100.00;97271.88;4998339;28;20491;-76
2024/03/25 03:46:58;;;;;;;3.23;1.50;;;3.90;99.90;;;4.51;100.00;97277.88;5000071;28;20483;-76
2024/03/25 03:49:26;;;;;;;4.63;1.90;;;3.80;99.90;;;4.48;100.00;97272.22;5001991;28;20459;-76
2024/03/25 03:51:54;;;;;;;6.50;1.60;;;3.80;99.90;;;4.54;100.00;97272.41;5016498;28;20479;-75
2024/03/25 03:54:21;;;;;;;3.73;1.40;;;3.80;99.90;;;4.53;100.00;97269.97;4996361;28;20521;-76
2024/03/25 03:56:47;;;;;;;3.53;1.83;;;3.80;99.90;;;4.40;100.00;97262.75;5001035;28;20460;-76
2024/03/25 03:59:15;;;;;;;2.60;1.70;;;3.60;99.90;;;4.25;100.00;97272.16;5000536;28;20561;-75
2024/03/25 04:01:41;;;;;;;3.70;1.67;;;3.60;99.90;;;4.24;100.00;97272.31;5000180;28;20464;-76
2024/03/25 04:04:08;;;;;;;6.27;2.10;;;3.50;99.90;;;4.28;100.00;97278.78;5018174;28;20487;-76
2024/03/25 04:06:36;;;;;;;6.03;2.53;;;3.50;99.90;;;4.24;100.00;97278.31;5007267;28;20460;-76
2024/03/25 04:09:05;;;;;;;5.03;2.33;;;3.40;99.90;;;4.11;100.00;97285.78;5013962;28;21036;-76
2024/03/25 04:11:31;;;;;;;3.60;1.93;;;3.30;99.90;;;4.13;100.00;97281.22;5014507;28;20483;-85
2024/03/25 04:13:58;;;;;;;7.10;3.37;;;3.30;99.90;;;4.12;100.00;97287.41;4999339;28;20495;-75
2024/03/25 04:16:25;;;;;;;2.83;1.83;;;3.30;99.90;;;4.04;100.00;97284.81;5018106;28;22130;-75
2024/03/25 04:18:52;;;;;;;4.40;2.30;;;3.10;99.90;;;3.96;100.00;97284.81;4999190;28;20476;-76
2024/03/25 04:21:19;;;;;;;2.63;2.40;;;3.10;99.90;;;3.95;100.00;97284.06;5000290;28;20459;-79
2024/03/25 04:23:46;;;;;;;3.57;1.87;;;3.10;99.90;;;3.94;100.00;97287.59;4998938;28;20486;-78
2024/03/25 04:26:14;;;;;;;4.83;2.03;;;3.10;99.90;;;3.90;100.00;97285.50;5017646;28;20468;-76
2024/03/25 04:28:41;;;;;;;4.73;1.80;;;3.10;99.90;;;3.80;100.00;97284.88;5000180;28;20522;-77
2024/03/25 04:31:08;;;;;;;7.27;2.00;;;3.00;99.90;;;3.78;100.00;97276.47;5004315;28;20463;-78
2024/03/25 04:33:36;;;;;;;3.50;1.93;;;3.10;99.90;;;3.77;100.00;97282.59;5000349;28;20460;-77
2024/03/25 04:36:03;;;;;;;3.47;1.60;;;3.10;99.90;;;3.74;100.00;97283.75;5019142;28;20830;-77
